Time;durP1;ratioP1;P1;durP2;ratioP2;P2;SDS_P1;SDS_P2;PMS_P1;PMS_P2;Temp;Humidity;BMP_temperature;BMP_pressure;BME280_temperature;BME280_humidity;BME280_pressure;Samples;Min_cycle;Max_cycle;Signal;HPM_P1;HPM_P2
2023/01/30 00:00:57;;;;;;;;;;;;;;;;;;5063016;28;19931;-78
2023/01/30 00:03:22;;;;;;;;;;;;;;;;;;5087964;28;20328;-78
2023/01/30 00:05:47;;;;;;;;;;;;;;;;;;5073302;28;20326;-77
2023/01/30 00:08:12;;;;;;;;;;;;;;;;;;5063218;28;20364;-79
2023/01/30 00:10:37;;;;;;;;;;;;;;;;;;5085217;28;20298;-79
2023/01/30 00:13:02;;;;;;;;;;;;;;;;;;5070802;28;19908;-78
2023/01/30 00:15:27;;;;;;;;;;;;;;;;;;5062440;28;19965;-78
2023/01/30 00:17:53;;;;;;;;;;;;;;;;;;5076161;28;19919;-78
2023/01/30 00:20:18;;;;;;;;;;;;;;;;;;5088849;28;19964;-78
2023/01/30 00:22:43;;;;;;;;;;;;;;;;;;5088260;28;19965;-77
2023/01/30 00:25:08;;;;;;;;;;;;;;;;;;5067353;28;19916;-78
2023/01/30 00:27:33;;;;;;;;;;;;;;;;;;5071558;28;20280;-77
2023/01/30 00:29:59;;;;;;;;;;;;;;;;;;5086191;28;19962;-78
2023/01/30 00:32:25;;;;;;;;;;;;;;;;;;5071517;28;19912;-77
2023/01/30 00:34:51;;;;;;;;;;;;;;;;;;5086534;28;19921;-77
2023/01/30 00:37:16;;;;;;;;;;;;;;;;;;5085286;28;20454;-78
2023/01/30 00:39:41;;;;;;;;;;;;;;;;;;5067351;28;19908;-77
2023/01/30 00:47:34;;;;;;;;;;;;;;;;;;5082731;28;19926;-78
2023/01/30 00:49:59;;;;;;;;;;;;;;;;;;5072833;28;19916;-78
2023/01/30 00:52:24;;;;;;;;;;;;;;;;;;5087483;28;19912;-77
2023/01/30 00:54:51;;;;;;;;;;;;;;;;;;5070330;28;19912;-77
2023/01/30 00:57:16;;;;;;;;;;;;;;;;;;5066133;28;19916;-78
2023/01/30 00:59:41;;;;;;;;;;;;;;;;;;5061918;28;19995;-78
2023/01/30 01:02:06;;;;;;;;;;;;;;;;;;5094678;28;19916;-78
2023/01/30 01:04:41;;;;;;;;;;;;;;;;;;5090043;28;20379;-79
2023/01/30 01:07:07;;;;;;;;;;;;;;;;;;5085862;28;20356;-78
2023/01/30 01:09:32;;;;;;;;;;;;;;;;;;5063667;28;19919;-78
2023/01/30 01:11:57;;;;;;;;;;;;;;;;;;5086973;28;20061;-77
2023/01/30 01:14:22;;;;;;;;;;;;;;;;;;5081792;28;19919;-77
2023/01/30 01:16:47;;;;;;;;;;;;;;;;;;5066261;28;19912;-77
2023/01/30 01:19:12;;;;;;;;;;;;;;;;;;5087641;28;20108;-77
2023/01/30 01:21:38;;;;;;;;;;;;;;;;;;5088720;28;20287;-78
2023/01/30 01:24:03;;;;;;;;;;;;;;;;;;5071873;28;19916;-77
2023/01/30 01:26:28;;;;;;;;;;;;;;;;;;5071435;28;19920;-77
2023/01/30 01:28:53;;;;;;;;;;;;;;;;;;5069263;28;19982;-76
2023/01/30 01:31:18;;;;;;;;;;;;;;;;;;5070397;28;20506;-77
2023/01/30 01:33:43;;;;;;;;;;;;;;;;;;5056235;28;19922;-77
2023/01/30 01:36:08;;;;;;;;;;;;;;;;;;5065701;28;20283;-77
2023/01/30 01:38:34;;;;;;;;;;;;;;;;;;5049254;28;20291;-77
2023/01/30 01:41:02;;;;;;;;;;;;;;;;;;5068275;28;20700;-77
2023/01/30 01:43:27;;;;;;;;;;;;;;;;;;5066058;28;19912;-77
2023/01/30 01:45:52;;;;;;;;;;;;;;;;;;5053146;28;19962;-77
2023/01/30 01:48:17;;;;;;;;;;;;;;;;;;5066064;28;19951;-76
2023/01/30 01:50:42;;;;;;;;;;;;;;;;;;5072409;28;19924;-76
2023/01/30 01:53:07;;;;;;;;;;;;;;;;;;5039550;28;19913;-78
2023/01/30 01:55:32;;;;;;;;;;;;;;;;;;5048897;28;19999;-77
2023/01/30 01:57:57;;;;;;;;;;;;;;;;;;5071272;28;19919;-77
2023/01/30 02:00:23;;;;;;;;;;;;;;;;;;5052702;28;19916;-77
2023/01/30 02:02:48;;;;;;;;;;;;;;;;;;5073003;28;20430;-77
2023/01/30 02:05:13;;;;;;;;;;;;;;;;;;5051622;28;19928;-77
2023/01/30 02:07:38;;;;;;;;;;;;;;;;;;5048441;28;19963;-78
2023/01/30 02:10:03;;;;;;;;;;;;;;;;;;5043824;28;19916;-77
2023/01/30 02:12:28;;;;;;;;;;;;;;;;;;5062089;28;19917;-78
2023/01/30 02:14:53;;;;;;;;;;;;;;;;;;5070212;28;20011;-76
2023/01/30 02:17:19;;;;;;;;;;;;;;;;;;5046631;28;19920;-77
2023/01/30 02:19:44;;;;;;;;;;;;;;;;;;5069623;28;19924;-78
2023/01/30 02:22:09;;;;;;;;;;;;;;;;;;5054438;28;20015;-78
2023/01/30 02:24:34;;;;;;;;;;;;;;;;;;5066534;28;19950;-78
2023/01/30 02:26:59;;;;;;;;;;;;;;;;;;5061652;28;19923;-78
2023/01/30 02:29:25;;;;;;;;;;;;;;;;;;5066785;28;19912;-78
2023/01/30 02:31:50;;;;;;;;;;;;;;;;;;5066617;28;19952;-78
2023/01/30 02:34:15;;;;;;;;;;;;;;;;;;5071132;28;19919;-78
2023/01/30 02:36:40;;;;;;;;;;;;;;;;;;5071994;28;19912;-78
2023/01/30 02:39:05;;;;;;;;;;;;;;;;;;5061906;28;20369;-78
2023/01/30 02:41:30;;;;;;;;;;;;;;;;;;5062989;28;20364;-78
2023/01/30 02:43:55;;;;;;;;;;;;;;;;;;5063082;28;19913;-76
2023/01/30 02:46:21;;;;;;;;;;;;;;;;;;5066831;28;19920;-77
2023/01/30 02:48:46;;;;;;;;;;;;;;;;;;5070229;28;19965;-77
2023/01/30 02:51:11;;;;;;;;;;;;;;;;;;5061902;28;19917;-77
2023/01/30 02:53:36;;;;;;;;;;;;;;;;;;5065938;28;19919;-77
2023/01/30 02:56:01;;;;;;;;;;;;;;;;;;5069143;28;19974;-78
2023/01/30 02:58:26;;;;;;;;;;;;;;;;;;5070888;28;19938;-78
2023/01/30 03:00:52;;;;;;;;;;;;;;;;;;5069081;28;19921;-78
2023/01/30 03:03:17;;;;;;;;;;;;;;;;;;5068987;28;19912;-78
2023/01/30 03:05:42;;;;;;;;;;;;;;;;;;5067904;28;19958;-78
2023/01/30 03:08:07;;;;;;;;;;;;;;;;;;5062915;28;19948;-78
2023/01/30 03:10:32;;;;;;;;;;;;;;;;;;5061215;28;19923;-78
2023/01/30 03:12:57;;;;;;;;;;;;;;;;;;5066869;28;19956;-78
2023/01/30 03:15:23;;;;;;;;;;;;;;;;;;5070597;28;19974;-78
2023/01/30 03:17:48;;;;;;;;;;;;;;;;;;5064527;28;20368;-78
2023/01/30 03:20:13;;;;;;;;;;;;;;;;;;5069457;28;20447;-78
2023/01/30 03:22:38;;;;;;;;;;;;;;;;;;5066908;28;20291;-78
2023/01/30 03:25:04;;;;;;;;;;;;;;;;;;5067791;28;19913;-78
2023/01/30 03:27:29;;;;;;;;;;;;;;;;;;5056116;28;19943;-78
2023/01/30 03:29:54;;;;;;;;;;;;;;;;;;5069463;28;19920;-78
2023/01/30 03:32:19;;;;;;;;;;;;;;;;;;5052950;28;19991;-77
2023/01/30 03:34:44;;;;;;;;;;;;;;;;;;5054575;28;19920;-78
2023/01/30 03:37:09;;;;;;;;;;;;;;;;;;5057950;28;19913;-77
2023/01/30 03:39:34;;;;;;;;;;;;;;;;;;5047095;28;19909;-78
2023/01/30 03:41:59;;;;;;;;;;;;;;;;;;5070900;28;19920;-78
2023/01/30 03:44:25;;;;;;;;;;;;;;;;;;5068843;28;19912;-78
2023/01/30 03:46:50;;;;;;;;;;;;;;;;;;5070801;28;20005;-78
2023/01/30 03:49:15;;;;;;;;;;;;;;;;;;5053515;28;19912;-78
2023/01/30 03:51:40;;;;;;;;;;;;;;;;;;5068845;28;20024;-79
2023/01/30 03:54:05;;;;;;;;;;;;;;;;;;5069863;28;20013;-77
2023/01/30 03:56:30;;;;;;;;;;;;;;;;;;5049722;28;19913;-77
2023/01/30 03:58:55;;;;;;;;;;;;;;;;;;5052995;28;19919;-77
2023/01/30 04:01:21;;;;;;;;;;;;;;;;;;5069838;28;20443;-77
2023/01/30 04:03:46;;;;;;;;;;;;;;;;;;5051728;28;19920;-78
2023/01/30 04:06:11;;;;;;;;;;;;;;;;;;5052651;28;20377;-78
2023/01/30 04:08:36;;;;;;;;;;;;;;;;;;5065005;28;19959;-78
2023/01/30 04:11:01;;;;;;;;;;;;;;;;;;5052767;28;19985;-78
2023/01/30 04:13:26;;;;;;;;;;;;;;;;;;5060895;28;19912;-78
2023/01/30 04:15:51;;;;;;;;;;;;;;;;;;5069146;28;19917;-78
2023/01/30 04:18:17;;;;;;;;;;;;;;;;;;5062860;28;19912;-77
2023/01/30 04:20:42;;;;;;;;;;;;;;;;;;5070253;28;19925;-78
2023/01/30 04:23:07;;;;;;;;;;;;;;;;;;5070842;28;19913;-78
2023/01/30 04:25:32;;;;;;;;;;;;;;;;;;5068812;28;19913;-78
2023/01/30 04:27:57;;;;;;;;;;;;;;;;;;5062234;28;19944;-78
2023/01/30 04:30:22;;;;;;;;;;;;;;;;;;5062480;28;19955;-78
2023/01/30 04:32:47;;;;;;;;;;;;;;;;;;5048428;28;19959;-78
2023/01/30 04:35:12;;;;;;;;;;;;;;;;;;5063627;28;19908;-78
2023/01/30 04:37:38;;;;;;;;;;;;;;;;;;5038074;28;19917;-78
2023/01/30 04:40:03;;;;;;;;;;;;;;;;;;5059941;28;19913;-77
2023/01/30 04:42:28;;;;;;;;;;;;;;;;;;5044632;28;19969;-78
2023/01/30 04:44:53;;;;;;;;;;;;;;;;;;5043247;28;19913;-78
2023/01/30 04:47:18;;;;;;;;;;;;;;;;;;5062862;28;19925;-78
2023/01/30 04:49:44;;;;;;;;;;;;;;;;;;5050729;28;19919;-78
2023/01/30 04:52:09;;;;;;;;;;;;;;;;;;5070231;28;19970;-79
2023/01/30 04:54:34;;;;;;;;;;;;;;;;;;5062533;28;19912;-79
2023/01/30 04:56:59;;;;;;;;;;;;;;;;;;5042945;28;20391;-79
2023/01/30 04:59:24;;;;;;;;;;;;;;;;;;5062263;28;19919;-79
2023/01/30 05:01:49;;;;;;;;;;;;;;;;;;5068556;28;19955;-78
2023/01/30 05:04:14;;;;;;;;;;;;;;;;;;5054708;28;20331;-78
2023/01/30 05:06:40;;;;;;;;;;;;;;;;;;5054895;28;19955;-78
2023/01/30 05:09:05;;;;;;;;;;;;;;;;;;5045537;28;19913;-78
2023/01/30 05:11:31;;;;;;;;;;;;;;;;;;5047667;28;19920;-78
2023/01/30 05:13:56;;;;;;;;;;;;;;;;;;5068968;28;19944;-78
2023/01/30 05:16:21;;;;;;;;;;;;;;;;;;5044978;28;20292;-78
2023/01/30 05:18:46;;;;;;;;;;;;;;;;;;5047560;28;19916;-78
2023/01/30 05:21:11;;;;;;;;;;;;;;;;;;5068323;28;20411;-78
2023/01/30 05:23:36;;;;;;;;;;;;;;;;;;5071790;28;20372;-78
2023/01/30 05:26:01;;;;;;;;;;;;;;;;;;5046512;28;20019;-77
2023/01/30 05:28:27;;;;;;;;;;;;;;;;;;5070002;28;19964;-77
2023/01/30 05:30:53;;;;;;;;;;;;;;;;;;5061217;28;19943;-77
2023/01/30 05:33:18;;;;;;;;;;;;;;;;;;5045836;28;20384;-77
2023/01/30 05:35:43;;;;;;;;;;;;;;;;;;5054416;28;19919;-79
2023/01/30 05:38:08;;;;;;;;;;;;;;;;;;5052055;28;20061;-80
2023/01/30 05:40:33;;;;;;;;;;;;;;;;;;5065750;28;20394;-80
2023/01/30 05:42:58;;;;;;;;;;;;;;;;;;5070103;28;19912;-80
2023/01/30 05:45:24;;;;;;;;;;;;;;;;;;5071342;28;19912;-78
2023/01/30 05:47:49;;;;;;;;;;;;;;;;;;5071625;28;19916;-79
2023/01/30 05:50:14;;;;;;;;;;;;;;;;;;5070187;28;19924;-76
2023/01/30 05:52:39;;;;;;;;;;;;;;;;;;5070887;28;19927;-78
2023/01/30 05:55:04;;;;;;;;;;;;;;;;;;5065259;28;19912;-77
2023/01/30 05:57:29;;;;;;;;;;;;;;;;;;5052692;28;19981;-79
2023/01/30 05:59:54;;;;;;;;;;;;;;;;;;5051002;28;19983;-78
2023/01/30 06:02:19;;;;;;;;;;;;;;;;;;5071023;28;20000;-77
2023/01/30 06:04:45;;;;;;;;;;;;;;;;;;5051706;28;19927;-80
2023/01/30 06:07:10;;;;;;;;;;;;;;;;;;5070107;28;19923;-80
2023/01/30 06:09:35;;;;;;;;;;;;;;;;;;5072030;28;19920;-80
2023/01/30 06:12:00;;;;;;;;;;;;;;;;;;5054964;28;19951;-77
2023/01/30 06:14:25;;;;;;;;;;;;;;;;;;5054602;28;19916;-78
2023/01/30 06:16:50;;;;;;;;;;;;;;;;;;5053537;28;20388;-78
2023/01/30 06:19:16;;;;;;;;;;;;;;;;;;5049469;28;19908;-78
2023/01/30 06:21:41;;;;;;;;;;;;;;;;;;5067495;28;19955;-78
2023/01/30 06:24:06;;;;;;;;;;;;;;;;;;5067263;28;19912;-79
2023/01/30 06:26:31;;;;;;;;;;;;;;;;;;5053710;28;19916;-78
2023/01/30 06:28:56;;;;;;;;;;;;;;;;;;5084104;28;19912;-78
2023/01/30 06:31:21;;;;;;;;;;;;;;;;;;5091275;28;19927;-79
2023/01/30 06:33:48;;;;;;;;;;;;;;;;;;5081229;28;19912;-80
2023/01/30 06:36:13;;;;;;;;;;;;;;;;;;5092566;28;19908;-79
2023/01/30 06:38:38;;;;;;;;;;;;;;;;;;5087240;28;19920;-78
2023/01/30 06:41:03;;;;;;;;;;;;;;;;;;5068698;28;19916;-79
2023/01/30 06:43:28;;;;;;;;;;;;;;;;;;5088602;28;20432;-78
2023/01/30 06:45:54;;;;;;;;;;;;;;;;;;5067501;28;20380;-79
2023/01/30 06:48:19;;;;;;;;;;;;;;;;;;5065793;28;20011;-79
2023/01/30 06:50:44;;;;;;;;;;;;;;;;;;5091165;28;19920;-79
2023/01/30 06:53:09;;;;;;;;;;;;;;;;;;5071653;28;19956;-79
2023/01/30 06:55:34;;;;;;;;;;;;;;;;;;5065931;28;19923;-79
2023/01/30 06:57:59;;;;;;;;;;;;;;;;;;5071148;28;19912;-80
2023/01/30 07:00:24;;;;;;;;;;;;;;;;;;5070480;28;19923;-79
2023/01/30 07:02:50;;;;;;;;;;;;;;;;;;5071041;28;19912;-79
2023/01/30 07:05:15;;;;;;;;;;;;;;;;;;5089129;28;20010;-79
2023/01/30 07:07:40;;;;;;;;;;;;;;;;;;5066713;28;19912;-79
2023/01/30 07:10:05;;;;;;;;;;;;;;;;;;5070041;28;19923;-79
2023/01/30 07:12:30;;;;;;;;;;;;;;;;;;5060860;28;19992;-79
2023/01/30 07:14:55;;;;;;;;;;;;;;;;;;5074052;28;19912;-79
2023/01/30 07:17:20;;;;;;;;;;;;;;;;;;5081337;28;20007;-78
2023/01/30 07:19:46;;;;;;;;;;;;;;;;;;5057605;28;19934;-79
2023/01/30 07:22:11;;;;;;;;;;;;;;;;;;5055229;28;19908;-80
2023/01/30 07:24:37;;;;;;;;;;;;;;;;;;5072879;28;19909;-77
2023/01/30 07:27:02;;;;;;;;;;;;;;;;;;5051533;28;19917;-79
2023/01/30 07:29:27;;;;;;;;;;;;;;;;;;5053380;28;19913;-79
2023/01/30 07:31:52;;;;;;;;;;;;;;;;;;5053469;28;19962;-79
2023/01/30 07:34:17;;;;;;;;;;;;;;;;;;5073137;28;19909;-79
2023/01/30 07:36:42;;;;;;;;;;;;;;;;;;5073273;28;19909;-79
2023/01/30 07:39:08;;;;;;;;;;;;;;;;;;5044549;28;19947;-80
2023/01/30 07:41:33;;;;;;;;;;;;;;;;;;5043393;28;19913;-78
2023/01/30 07:43:58;;;;;;;;;;;;;;;;;;5052995;28;20394;-80
2023/01/30 07:46:24;;;;;;;;;;;;;;;;;;5068348;28;20318;-78
2023/01/30 07:48:49;;;;;;;;;;;;;;;;;;5037688;28;19944;-79
2023/01/30 07:51:15;;;;;;;;;;;;;;;;;;5070758;28;19974;-80
2023/01/30 07:53:40;;;;;;;;;;;;;;;;;;5072341;28;20368;-79
2023/01/30 07:56:05;;;;;;;;;;;;;;;;;;5060468;28;20354;-79
2023/01/30 07:58:30;;;;;;;;;;;;;;;;;;5064887;28;19912;-79
2023/01/30 08:00:55;;;;;;;;;;;;;;;;;;5072661;28;19931;-79
2023/01/30 08:03:20;;;;;;;;;;;;;;;;;;5069884;28;19917;-80
2023/01/30 08:05:46;;;;;;;;;;;;;;;;;;5072870;28;19913;-81
2023/01/30 08:08:11;;;;;;;;;;;;;;;;;;5048369;28;20299;-79
2023/01/30 08:10:36;;;;;;;;;;;;;;;;;;5063629;28;20003;-78
2023/01/30 08:13:01;;;;;;;;;;;;;;;;;;5068800;28;19912;-79
2023/01/30 08:15:26;;;;;;;;;;;;;;;;;;5054679;28;20415;-79
2023/01/30 08:17:51;;;;;;;;;;;;;;;;;;5037729;28;19909;-79
2023/01/30 08:20:17;;;;;;;;;;;;;;;;;;5034716;28;19916;-78
2023/01/30 08:22:42;;;;;;;;;;;;;;;;;;5046570;28;19917;-79
2023/01/30 08:25:07;;;;;;;;;;;;;;;;;;5054561;28;19958;-79
2023/01/30 08:27:32;;;;;;;;;;;;;;;;;;5072546;28;20396;-78
2023/01/30 08:29:57;;;;;;;;;;;;;;;;;;5042110;28;19916;-78
2023/01/30 08:32:22;;;;;;;;;;;;;;;;;;5041095;28;20337;-79
2023/01/30 08:34:47;;;;;;;;;;;;;;;;;;5072840;28;20395;-79
2023/01/30 08:37:13;;;;;;;;;;;;;;;;;;5066230;28;20384;-80
2023/01/30 08:39:38;;;;;;;;;;;;;;;;;;5048424;28;19995;-79
2023/01/30 08:42:03;;;;;;;;;;;;;;;;;;5054480;28;19909;-79
2023/01/30 08:44:28;;;;;;;;;;;;;;;;;;5056447;28;19939;-80
2023/01/30 08:46:53;;;;;;;;;;;;;;;;;;5075785;28;19919;-79
2023/01/30 08:49:18;;;;;;;;;;;;;;;;;;5073494;28;19917;-79
2023/01/30 08:51:44;;;;;;;;;;;;;;;;;;5076022;28;20034;-79
2023/01/30 08:54:09;;;;;;;;;;;;;;;;;;5069489;28;20383;-83
2023/01/30 08:56:34;;;;;;;;;;;;;;;;;;5057808;28;19916;-81
2023/01/30 08:58:59;;;;;;;;;;;;;;;;;;5073801;28;19923;-81
2023/01/30 09:01:24;;;;;;;;;;;;;;;;;;5056651;28;19912;-82
2023/01/30 09:03:49;;;;;;;;;;;;;;;;;;5056330;28;20053;-81
2023/01/30 09:06:15;;;;;;;;;;;;;;;;;;5057970;28;19908;-80
2023/01/30 09:08:40;;;;;;;;;;;;;;;;;;5043597;28;20016;-81
2023/01/30 09:11:05;;;;;;;;;;;;;;;;;;5052378;28;19913;-80
2023/01/30 09:13:30;;;;;;;;;;;;;;;;;;5057645;28;19909;-80
2023/01/30 09:15:55;;;;;;;;;;;;;;;;;;5060823;28;19917;-80
2023/01/30 09:18:20;;;;;;;;;;;;;;;;;;5063245;28;20007;-80
2023/01/30 09:20:46;;;;;;;;;;;;;;;;;;5057371;28;19909;-80
2023/01/30 09:23:11;;;;;;;;;;;;;;;;;;5069156;28;19989;-80
2023/01/30 09:25:36;;;;;;;;;;;;;;;;;;5060559;28;19920;-79
2023/01/30 09:28:01;;;;;;;;;;;;;;;;;;5065040;28;19913;-79
2023/01/30 09:30:26;;;;;;;;;;;;;;;;;;5075121;28;19917;-80
2023/01/30 09:32:52;;;;;;;;;;;;;;;;;;5077123;28;19912;-80
2023/01/30 09:35:17;;;;;;;;;;;;;;;;;;5095804;28;19908;-80
2023/01/30 09:37:42;;;;;;;;;;;;;;;;;;5073118;28;20070;-80
2023/01/30 09:40:07;;;;;;;;;;;;;;;;;;5088488;28;19908;-79
2023/01/30 09:42:32;;;;;;;;;;;;;;;;;;5080756;28;19912;-79
2023/01/30 09:44:57;;;;;;;;;;;;;;;;;;5077273;28;19915;-80
2023/01/30 09:47:23;;;;;;;;;;;;;;;;;;5062780;28;19908;-80
2023/01/30 09:49:48;;;;;;;;;;;;;;;;;;5056602;28;20266;-80
2023/01/30 09:52:13;;;;;;;;;;;;;;;;;;5077635;28;19916;-80
2023/01/30 09:54:38;;;;;;;;;;;;;;;;;;5094942;28;20287;-80
2023/01/30 09:57:03;;;;;;;;;;;;;;;;;;5095285;28;20382;-80
2023/01/30 09:59:28;;;;;;;;;;;;;;;;;;5077041;28;19912;-80
2023/01/30 10:01:54;;;;;;;;;;;;;;;;;;5094517;28;20448;-80
2023/01/30 10:04:19;;;;;;;;;;;;;;;;;;5076260;28;19919;-80
2023/01/30 10:06:44;;;;;;;;;;;;;;;;;;5076922;28;19912;-81
2023/01/30 10:09:09;;;;;;;;;;;;;;;;;;5087893;28;19919;-81
2023/01/30 10:11:34;;;;;;;;;;;;;;;;;;5094778;28;19912;-80
2023/01/30 10:14:00;;;;;;;;;;;;;;;;;;5072810;28;20003;-80
2023/01/30 10:16:25;;;;;;;;;;;;;;;;;;5088390;28;19959;-82
2023/01/30 10:18:50;;;;;;;;;;;;;;;;;;5056657;28;19965;-81
2023/01/30 10:21:15;;;;;;;;;;;;;;;;;;5056592;28;19908;-81
2023/01/30 10:23:40;;;;;;;;;;;;;;;;;;5075132;28;19920;-81
2023/01/30 10:26:05;;;;;;;;;;;;;;;;;;5094360;28;19920;-81
2023/01/30 10:28:30;;;;;;;;;;;;;;;;;;5076486;28;19908;-80
2023/01/30 10:30:56;;;;;;;;;;;;;;;;;;5094097;28;20371;-80
2023/01/30 10:33:21;;;;;;;;;;;;;;;;;;5094460;28;20387;-81
2023/01/30 10:35:46;;;;;;;;;;;;;;;;;;5089035;28;20006;-80
2023/01/30 10:38:11;;;;;;;;;;;;;;;;;;5071185;28;20265;-80
2023/01/30 10:40:36;;;;;;;;;;;;;;;;;;5094038;28;19944;-80
2023/01/30 10:43:01;;;;;;;;;;;;;;;;;;5075820;28;19979;-80
2023/01/30 10:45:27;;;;;;;;;;;;;;;;;;5072695;28;19924;-81
2023/01/30 10:47:52;;;;;;;;;;;;;;;;;;5082721;28;19933;-80
2023/01/30 10:50:17;;;;;;;;;;;;;;;;;;5067807;28;20260;-80
2023/01/30 10:52:42;;;;;;;;;;;;;;;;;;5093877;28;20364;-81
2023/01/30 10:55:07;;;;;;;;;;;;;;;;;;5061700;28;19909;-80
2023/01/30 10:57:33;;;;;;;;;;;;;;;;;;5090390;28;19912;-80
2023/01/30 11:00:06;;;;;;;;;;;;;;;;;;5074646;28;19908;-80
2023/01/30 11:02:31;;;;;;;;;;;;;;;;;;5069361;28;20315;-80
2023/01/30 11:04:58;;;;;;;;;;;;;;;;;;5075551;28;19908;-81
2023/01/30 11:07:23;;;;;;;;;;;;;;;;;;5066804;28;20032;-81
2023/01/30 11:09:48;;;;;;;;;;;;;;;;;;5060136;28;20016;-79
2023/01/30 11:12:13;;;;;;;;;;;;;;;;;;5082112;28;20310;-80
2023/01/30 11:14:38;;;;;;;;;;;;;;;;;;5062646;28;19912;-79
2023/01/30 11:17:03;;;;;;;;;;;;;;;;;;5055233;28;19908;-79
2023/01/30 11:19:28;;;;;;;;;;;;;;;;;;5091377;28;19920;-80
2023/01/30 11:21:54;;;;;;;;;;;;;;;;;;5075074;28;20287;-80
2023/01/30 11:24:19;;;;;;;;;;;;;;;;;;5081576;28;19920;-79
2023/01/30 11:26:44;;;;;;;;;;;;;;;;;;5074148;28;19916;-78
2023/01/30 11:29:10;;;;;;;;;;;;;;;;;;5063627;28;19920;-79
2023/01/30 11:31:35;;;;;;;;;;;;;;;;;;5080759;28;19920;-79
2023/01/30 11:34:00;;;;;;;;;;;;;;;;;;5070957;28;19912;-79
2023/01/30 11:36:25;;;;;;;;;;;;;;;;;;5072528;28;19912;-79
2023/01/30 11:38:51;;;;;;;;;;;;;;;;;;5086006;28;19912;-90
2023/01/30 11:41:16;;;;;;;;;;;;;;;;;;5071408;28;19912;-85
2023/01/30 11:43:41;;;;;;;;;;;;;;;;;;5090231;28;19912;-86
2023/01/30 11:46:06;;;;;;;;;;;;;;;;;;5082952;28;20003;-85
2023/01/30 11:48:31;;;;;;;;;;;;;;;;;;5067085;28;20287;-87
2023/01/30 11:50:56;;;;;;;;;;;;;;;;;;5080447;28;19930;-87
2023/01/30 11:53:22;;;;;;;;;;;;;;;;;;5068133;28;19961;-85
2023/01/30 11:55:47;;;;;;;;;;;;;;;;;;5079530;28;19920;-83
2023/01/30 11:58:12;;;;;;;;;;;;;;;;;;5063129;28;19923;-84
2023/01/30 12:00:37;;;;;;;;;;;;;;;;;;5079622;28;19986;-82
2023/01/30 12:03:02;;;;;;;;;;;;;;;;;;5072732;28;19912;-83
2023/01/30 12:05:27;;;;;;;;;;;;;;;;;;5089329;28;19912;-84
2023/01/30 12:07:52;;;;;;;;;;;;;;;;;;5064696;28;19920;-83
2023/01/30 12:10:18;;;;;;;;;;;;;;;;;;5068378;28;19916;-83
2023/01/30 12:12:43;;;;;;;;;;;;;;;;;;5080425;28;19913;-81
2023/01/30 12:15:08;;;;;;;;;;;;;;;;;;5062445;28;20399;-78
2023/01/30 12:17:33;;;;;;;;;;;;;;;;;;5083865;28;20431;-84
2023/01/30 12:19:58;;;;;;;;;;;;;;;;;;5063614;28;19912;-83
2023/01/30 12:22:23;;;;;;;;;;;;;;;;;;5067576;28;19947;-80
2023/01/30 12:24:49;;;;;;;;;;;;;;;;;;5085781;28;20067;-80
2023/01/30 12:27:14;;;;;;;;;;;;;;;;;;5072040;28;20288;-80
2023/01/30 12:29:39;;;;;;;;;;;;;;;;;;5082837;28;20448;-82
2023/01/30 12:32:04;;;;;;;;;;;;;;;;;;5069501;28;19974;-84
2023/01/30 12:34:29;;;;;;;;;;;;;;;;;;5067157;28;19912;-83
2023/01/30 12:36:54;;;;;;;;;;;;;;;;;;5065856;28;19916;-80
2023/01/30 12:39:19;;;;;;;;;;;;;;;;;;5076254;28;20419;-81
2023/01/30 12:41:45;;;;;;;;;;;;;;;;;;5065803;28;19920;-82
2023/01/30 12:44:10;;;;;;;;;;;;;;;;;;5065518;28;20003;-81
2023/01/30 12:46:35;;;;;;;;;;;;;;;;;;5084565;28;19917;-82
2023/01/30 12:49:01;;;;;;;;;;;;;;;;;;5084895;28;19958;-81
2023/01/30 12:51:26;;;;;;;;;;;;;;;;;;5072638;28;20394;-78
2023/01/30 12:53:51;;;;;;;;;;;;;;;;;;5083284;28;19912;-80
2023/01/30 12:56:16;;;;;;;;;;;;;;;;;;5086010;28;19924;-81
2023/01/30 12:58:42;;;;;;;;;;;;;;;;;;5090929;28;19916;-80
2023/01/30 13:01:08;;;;;;;;;;;;;;;;;;5090183;28;19919;-80
2023/01/30 13:03:33;;;;;;;;;;;;;;;;;;5069154;28;20292;-80
2023/01/30 13:05:58;;;;;;;;;;;;;;;;;;5090612;28;19916;-80
2023/01/30 13:08:23;;;;;;;;;;;;;;;;;;5058035;28;20433;-81
2023/01/30 13:10:48;;;;;;;;;;;;;;;;;;5064461;28;19927;-81
2023/01/30 13:13:14;;;;;;;;;;;;;;;;;;5067677;28;19912;-81
2023/01/30 13:15:39;;;;;;;;;;;;;;;;;;5091227;28;19912;-81
2023/01/30 13:18:04;;;;;;;;;;;;;;;;;;5073933;28;19919;-81
2023/01/30 13:20:30;;;;;;;;;;;;;;;;;;5073927;28;19912;-81
2023/01/30 13:22:55;;;;;;;;;;;;;;;;;;5091363;28;19908;-80
2023/01/30 13:25:20;;;;;;;;;;;;;;;;;;5072839;28;19908;-80
2023/01/30 13:27:46;;;;;;;;;;;;;;;;;;5074903;28;20426;-81
2023/01/30 13:30:11;;;;;;;;;;;;;;;;;;5075871;28;20422;-81
2023/01/30 13:32:36;;;;;;;;;;;;;;;;;;5076590;28;19918;-80
2023/01/30 13:35:01;;;;;;;;;;;;;;;;;;5092962;28;19912;-80
2023/01/30 13:37:26;;;;;;;;;;;;;;;;;;5072281;28;19920;-80
2023/01/30 13:39:51;;;;;;;;;;;;;;;;;;5063566;28;19984;-80
2023/01/30 13:42:16;;;;;;;;;;;;;;;;;;5084025;28;19908;-81
2023/01/30 13:44:42;;;;;;;;;;;;;;;;;;5094495;28;19923;-81
2023/01/30 13:47:08;;;;;;;;;;;;;;;;;;5093199;28;20269;-81
2023/01/30 13:49:33;;;;;;;;;;;;;;;;;;5076130;28;19912;-81
2023/01/30 13:51:58;;;;;;;;;;;;;;;;;;5075370;28;20360;-81
2023/01/30 13:54:23;;;;;;;;;;;;;;;;;;5076090;28;19912;-81
2023/01/30 13:56:48;;;;;;;;;;;;;;;;;;5065636;28;20297;-81
2023/01/30 13:59:13;;;;;;;;;;;;;;;;;;5092722;28;19973;-81
2023/01/30 14:01:39;;;;;;;;;;;;;;;;;;5091699;28;19912;-81
2023/01/30 14:04:04;;;;;;;;;;;;;;;;;;5090573;28;19912;-81
2023/01/30 14:06:29;;;;;;;;;;;;;;;;;;5073133;28;19909;-81
2023/01/30 14:08:57;;;;;;;;;;;;;;;;;;5062615;28;19913;-81
2023/01/30 14:11:23;;;;;;;;;;;;;;;;;;5066163;28;19923;-81
2023/01/30 14:13:48;;;;;;;;;;;;;;;;;;5087418;28;19912;-81
2023/01/30 14:16:14;;;;;;;;;;;;;;;;;;5091715;28;19920;-81
2023/01/30 14:18:39;;;;;;;;;;;;;;;;;;5091972;28;19968;-81
2023/01/30 14:21:05;;;;;;;;;;;;;;;;;;5073874;28;19924;-82
2023/01/30 14:23:30;;;;;;;;;;;;;;;;;;5066054;28;19919;-82
2023/01/30 14:25:55;;;;;;;;;;;;;;;;;;5063499;28;19928;-81
2023/01/30 14:28:20;;;;;;;;;;;;;;;;;;5062959;28;19919;-81
2023/01/30 14:30:48;;;;;;;;;;;;;;;;;;5071731;28;19935;-80
2023/01/30 14:33:16;;;;;;;;;;;;;;;;;;5055476;28;19967;-80
2023/01/30 14:35:41;;;;;;;;;;;;;;;;;;5052299;28;19956;-79
2023/01/30 14:38:07;;;;;;;;;;;;;;;;;;5060457;28;20031;-78
2023/01/30 14:40:32;;;;;;;;;;;;;;;;;;5068242;28;19909;-79
2023/01/30 14:42:57;;;;;;;;;;;;;;;;;;5080311;28;19920;-80
2023/01/30 14:45:22;;;;;;;;;;;;;;;;;;5089197;28;19951;-80
2023/01/30 14:47:47;;;;;;;;;;;;;;;;;;5090161;28;19919;-81
2023/01/30 14:50:12;;;;;;;;;;;;;;;;;;5068754;28;19920;-81
2023/01/30 14:52:37;;;;;;;;;;;;;;;;;;5064508;28;19913;-82
2023/01/30 14:55:03;;;;;;;;;;;;;;;;;;5071951;28;19912;-81
2023/01/30 14:57:31;;;;;;;;;;;;;;;;;;5073285;28;19923;-81
2023/01/30 14:59:57;;;;;;;;;;;;;;;;;;5068545;28;19923;-80
2023/01/30 15:02:22;;;;;;;;;;;;;;;;;;5068844;28;19915;-82
2023/01/30 15:04:47;;;;;;;;;;;;;;;;;;5070232;28;20001;-81
2023/01/30 15:07:12;;;;;;;;;;;;;;;;;;5090311;28;20363;-80
2023/01/30 15:09:38;;;;;;;;;;;;;;;;;;5081658;28;20391;-80
2023/01/30 15:12:03;;;;;;;;;;;;;;;;;;5067848;28;19986;-80
2023/01/30 15:14:28;;;;;;;;;;;;;;;;;;5069747;28;20283;-81
2023/01/30 15:16:53;;;;;;;;;;;;;;;;;;5072120;28;20364;-81
2023/01/30 15:19:18;;;;;;;;;;;;;;;;;;5066465;28;19919;-79
2023/01/30 15:21:44;;;;;;;;;;;;;;;;;;5088647;28;19912;-79
2023/01/30 15:24:09;;;;;;;;;;;;;;;;;;5065485;28;19916;-79
2023/01/30 15:26:34;;;;;;;;;;;;;;;;;;5084672;28;19928;-79
2023/01/30 15:28:59;;;;;;;;;;;;;;;;;;5069066;28;19951;-80
2023/01/30 15:31:26;;;;;;;;;;;;;;;;;;5086815;28;20290;-81
2023/01/30 15:33:51;;;;;;;;;;;;;;;;;;5072275;28;19916;-80
2023/01/30 15:36:16;;;;;;;;;;;;;;;;;;5090345;28;19918;-80
2023/01/30 15:38:41;;;;;;;;;;;;;;;;;;5069093;28;19938;-80
2023/01/30 15:41:07;;;;;;;;;;;;;;;;;;5084020;28;20073;-79
2023/01/30 15:43:32;;;;;;;;;;;;;;;;;;5063899;28;20307;-79
2023/01/30 15:45:57;;;;;;;;;;;;;;;;;;5065454;28;19916;-80
2023/01/30 15:48:22;;;;;;;;;;;;;;;;;;5060109;28;19974;-80
2023/01/30 15:50:47;;;;;;;;;;;;;;;;;;5066821;28;19925;-79
2023/01/30 15:53:13;;;;;;;;;;;;;;;;;;5081722;28;19918;-79
2023/01/30 15:55:38;;;;;;;;;;;;;;;;;;5082402;28;19922;-79
2023/01/30 15:58:03;;;;;;;;;;;;;;;;;;5066562;28;20023;-79
2023/01/30 16:00:28;;;;;;;;;;;;;;;;;;5063510;28;19924;-80
2023/01/30 16:02:53;;;;;;;;;;;;;;;;;;5066106;28;19920;-80
2023/01/30 16:05:19;;;;;;;;;;;;;;;;;;5068834;28;19912;-81
2023/01/30 16:07:44;;;;;;;;;;;;;;;;;;5063061;28;19927;-82
2023/01/30 16:10:09;;;;;;;;;;;;;;;;;;5081628;28;19916;-81
2023/01/30 16:12:39;;;;;;;;;;;;;;;;;;5063187;28;20000;-80
2023/01/30 16:15:04;;;;;;;;;;;;;;;;;;5065698;28;20441;-79
2023/01/30 16:17:29;;;;;;;;;;;;;;;;;;5082911;28;20364;-81
2023/01/30 16:19:54;;;;;;;;;;;;;;;;;;5065084;28;19927;-81
2023/01/30 16:22:20;;;;;;;;;;;;;;;;;;5084184;28;19958;-80
2023/01/30 16:24:45;;;;;;;;;;;;;;;;;;5084603;28;19964;-80
2023/01/30 16:27:10;;;;;;;;;;;;;;;;;;5086403;28;20292;-79
2023/01/30 16:29:35;;;;;;;;;;;;;;;;;;5066309;28;19912;-80
2023/01/30 16:32:00;;;;;;;;;;;;;;;;;;5061649;28;20584;-80
2023/01/30 16:34:25;;;;;;;;;;;;;;;;;;5065555;28;19912;-80
2023/01/30 16:36:50;;;;;;;;;;;;;;;;;;5084426;28;20324;-80